East Danville, Ohio
Current Conditions -  °F | °C
As of 9:15 PM on Sunday 25 Jan 2015 (Local Time) from KILN Reporting Station
Light Rain Light Rain  
Wind Chill: 29°   Ceiling: 300
Heat Index: 35°   Visibility: 3mi
Dew Point: 33°   Wind: 8mph
Humidity: 92%   Direction: 10°N
Pressure: 29.71"   Gusts: NA
Location:  39.1546°N, 83.569°W
Report Text: KILN 260215Z AUTO 01007KT 3SM -RA BR OVC003 02/01 A2971 RMK AO2 P0001 T00170006
Loading
Personal Weather Stations






























Interactive Weather Map New forecast layout! Learn more

10-Day Weather Forecast

Advertisements
Track Severe Weather on mobile